Terminal Aerodrome Forecast
Issued by NWS

Home | Current Version | Previous Version | Text Only | Print | Product List | Glossary On
Versions: 1 2 3 4 5 6 7 8 9 10 11 12 13 14 15 16 17 18 19 20 21 22 23 24 25
000
FTUS45 KBOU 291927 CCA
TAFAPA
TAF COR
KAPA 291927Z 2919/3018 06008KT 5SM -TSRA SCT020CB BKN030 BKN080
      TEMPO 2919/2920 13014G22KT 2SM +TSRA BKN020CB
     FM292000 12010KT P6SM VCTS SCT090CB BKN120
      TEMPO 2921/2924 VRB15G25KT BKN080CB
     FM300200 15008KT P6SM SCT090 BKN120
     FM300600 20008KT P6SM SCT120 BKN200
     FM301400 25006KT P6SM FEW120 SCT200=

USA.gov is the U.S. government's official web portal to all federal, state and local government web resources and services.